createdAt,value
2018-07-19T00:00:48.955Z,19.39
2018-07-19T00:01:48.960Z,19.43
2018-07-19T00:02:48.951Z,19.47
2018-07-19T00:03:48.952Z,19.43
2018-07-19T00:04:48.949Z,19.47
2018-07-19T00:05:48.961Z,19.42
2018-07-19T00:06:48.947Z,19.43
2018-07-19T00:07:48.945Z,19.47
2018-07-19T00:08:48.949Z,19.50
2018-07-19T00:09:48.942Z,19.40
2018-07-19T00:10:48.942Z,19.42
2018-07-19T00:11:48.941Z,19.43
2018-07-19T00:12:48.940Z,19.40
2018-07-19T00:13:48.941Z,19.42
2018-07-19T00:14:48.937Z,19.43
2018-07-19T00:15:48.940Z,19.36
2018-07-19T00:16:48.941Z,19.35
2018-07-19T00:17:48.929Z,19.33
2018-07-19T00:18:48.943Z,19.36
2018-07-19T00:19:48.928Z,19.29
2018-07-19T00:20:48.935Z,19.25
2018-07-19T00:21:48.932Z,19.36
2018-07-19T00:22:48.919Z,19.47
2018-07-19T00:23:48.919Z,19.36
2018-07-19T00:24:48.922Z,19.38
2018-07-19T00:25:48.919Z,19.40
2018-07-19T00:26:48.918Z,19.21
2018-07-19T00:27:48.908Z,19.24
2018-07-19T00:28:48.914Z,19.25
2018-07-19T00:29:48.911Z,19.24
2018-07-19T00:30:48.908Z,19.14
2018-07-19T00:31:48.910Z,19.15
2018-07-19T00:32:48.905Z,18.94
2018-07-19T00:33:48.966Z,18.91
2018-07-19T00:34:48.903Z,18.83
2018-07-19T00:35:48.905Z,18.70
2018-07-19T00:36:48.906Z,18.68
2018-07-19T00:37:48.903Z,18.65
2018-07-19T00:38:48.895Z,18.62
2018-07-19T00:39:48.900Z,18.64
2018-07-19T00:40:48.894Z,18.54
2018-07-19T00:41:48.895Z,18.49
2018-07-19T00:42:48.893Z,18.44
2018-07-19T00:43:49.908Z,18.39
2018-07-19T00:44:48.889Z,18.42
2018-07-19T00:45:48.887Z,18.40
2018-07-19T00:46:48.892Z,18.42
2018-07-19T00:47:48.882Z,18.39
2018-07-19T00:48:48.888Z,18.25
2018-07-19T00:49:48.879Z,18.25
2018-07-19T00:50:48.881Z,18.21
2018-07-19T00:51:48.873Z,18.21
2018-07-19T00:52:48.871Z,18.24
2018-07-19T00:53:48.876Z,18.25
2018-07-19T00:54:48.867Z,18.24
2018-07-19T00:55:48.870Z,18.13
2018-07-19T00:56:48.871Z,18.17
2018-07-19T00:57:48.865Z,18.25
2018-07-19T00:58:48.864Z,18.17
2018-07-19T00:59:48.866Z,18.12
2018-07-19T01:00:48.856Z,18.06
2018-07-19T01:01:48.858Z,18.06
2018-07-19T01:02:48.851Z,18.03
2018-07-19T01:03:48.858Z,17.87
2018-07-19T01:04:48.848Z,17.92
2018-07-19T01:05:48.853Z,17.88
2018-07-19T01:06:48.845Z,17.94
2018-07-19T01:07:48.844Z,17.92
2018-07-19T01:08:48.843Z,17.82
2018-07-19T01:09:48.839Z,17.85
2018-07-19T01:10:48.837Z,17.84
2018-07-19T01:11:48.835Z,17.89
2018-07-19T01:12:48.837Z,17.85
2018-07-19T01:13:48.831Z,17.70
2018-07-19T01:14:48.832Z,17.84
2018-07-19T01:15:48.828Z,17.87
2018-07-19T01:16:48.838Z,17.89
2018-07-19T01:17:48.826Z,17.87
2018-07-19T01:18:48.824Z,17.79
2018-07-19T01:19:48.818Z,17.84
2018-07-19T01:20:48.815Z,17.87
2018-07-19T01:21:48.815Z,17.89
2018-07-19T01:22:48.814Z,17.84
2018-07-19T01:23:48.811Z,17.78
2018-07-19T01:24:48.811Z,17.85
2018-07-19T01:25:48.808Z,17.78
2018-07-19T01:26:48.807Z,17.82
2018-07-19T01:27:48.800Z,17.81
2018-07-19T01:28:48.798Z,17.79
2018-07-19T01:29:48.806Z,17.82
2018-07-19T01:30:48.794Z,17.79
2018-07-19T02:04:20.630Z,18.21
2018-07-19T02:05:20.578Z,18.13
2018-07-19T02:07:13.554Z,18.24
2018-07-19T02:08:13.524Z,18.33
2018-07-19T02:10:06.524Z,18.37
2018-07-19T02:11:06.516Z,18.33
2018-07-19T02:12:59.440Z,18.24
2018-07-19T02:13:59.416Z,18.24
2018-07-19T02:15:52.376Z,18.31
2018-07-19T02:16:52.354Z,18.28
2018-07-19T02:18:45.340Z,18.18
2018-07-19T02:19:45.333Z,18.03
2018-07-19T02:21:38.386Z,17.88
2018-07-19T02:22:38.360Z,17.92
2018-07-19T02:24:31.372Z,17.79
2018-07-19T02:25:31.357Z,17.74
2018-07-19T02:27:24.342Z,17.71
2018-07-19T02:28:24.318Z,17.69
2018-07-19T02:30:17.360Z,17.62
2018-07-19T02:31:17.362Z,17.48
2018-07-19T02:33:10.298Z,17.46
2018-07-19T02:34:10.274Z,17.50
2018-07-19T02:36:03.185Z,17.48
2018-07-19T02:37:03.165Z,17.67
2018-07-19T02:38:56.076Z,17.59
2018-07-19T02:39:56.066Z,17.62
2018-07-19T02:41:48.992Z,17.50
2018-07-19T02:42:48.975Z,17.48
2018-07-19T02:44:41.936Z,17.43
2018-07-19T02:45:41.923Z,17.50
2018-07-19T02:47:34.884Z,17.50
2018-07-19T02:48:34.858Z,17.41
2018-07-19T02:50:27.807Z,17.47
2018-07-19T02:51:27.787Z,17.53
2018-07-19T02:53:20.701Z,17.62
2018-07-19T02:54:20.690Z,17.67
2018-07-19T02:56:13.592Z,17.67
2018-07-19T02:57:13.585Z,17.67
2018-07-19T02:59:06.539Z,17.79
2018-07-19T03:00:06.521Z,17.79
2018-07-19T03:01:59.471Z,17.87
2018-07-19T03:02:59.399Z,17.94
2018-07-19T03:04:52.370Z,17.95
2018-07-19T03:05:52.359Z,17.89
2018-07-19T03:07:45.362Z,17.89
2018-07-19T03:08:45.284Z,17.97
2018-07-19T03:10:38.210Z,18.02
2018-07-19T03:11:38.199Z,18.02
2018-07-19T03:13:31.125Z,18.02
2018-07-19T03:14:31.105Z,18.02
2018-07-19T03:16:24.053Z,18.03
2018-07-19T03:17:24.037Z,18.02
2018-07-19T03:19:17.052Z,17.97
2018-07-19T03:20:17.032Z,18.07
2018-07-19T03:22:10.077Z,18.09
2018-07-19T03:23:10.039Z,18.04
2018-07-19T03:25:02.993Z,18.13
2018-07-19T03:26:02.973Z,18.02
2018-07-19T03:27:55.876Z,18.02
2018-07-19T03:28:55.856Z,17.95
2018-07-19T03:30:48.811Z,17.95
2018-07-19T03:31:48.769Z,18.00
2018-07-19T03:33:41.721Z,18.04
2018-07-19T03:34:41.709Z,17.87
2018-07-19T03:36:34.593Z,17.88
2018-07-19T03:37:34.584Z,17.91
2018-07-19T03:39:28.526Z,17.91
2018-07-19T03:40:28.506Z,17.92
2018-07-19T03:42:21.437Z,17.81
2018-07-19T03:43:21.413Z,17.76
2018-07-19T03:45:14.372Z,17.63
2018-07-19T03:46:14.363Z,17.47
2018-07-19T03:48:07.266Z,17.26
2018-07-19T03:49:07.288Z,17.15
2018-07-19T03:51:00.225Z,17.08
2018-07-19T03:52:00.206Z,16.95
2018-07-19T03:53:53.116Z,16.98
2018-07-19T03:54:53.092Z,16.77
2018-07-19T03:56:46.067Z,16.73
2018-07-19T03:57:46.056Z,16.81
2018-07-19T03:59:39.057Z,16.95
2018-07-19T04:00:39.032Z,17.03
2018-07-19T04:02:31.974Z,16.89
2018-07-19T04:03:31.943Z,16.83
2018-07-19T04:05:24.864Z,16.85
2018-07-19T04:06:24.857Z,16.93
2018-07-19T04:08:17.787Z,16.89
2018-07-19T04:09:17.778Z,16.98
2018-07-19T04:11:10.746Z,16.90
2018-07-19T04:12:10.729Z,17.00
2018-07-19T04:14:03.760Z,16.93
2018-07-19T04:15:03.728Z,16.99
2018-07-19T04:16:56.653Z,16.99
2018-07-19T04:17:56.633Z,17.04
2018-07-19T04:19:49.627Z,17.06
2018-07-19T04:20:49.608Z,17.11
2018-07-19T04:22:42.540Z,17.26
2018-07-19T04:23:42.520Z,17.26
2018-07-19T04:25:35.527Z,17.40
2018-07-19T04:26:35.517Z,17.41
2018-07-19T04:28:29.469Z,17.47
2018-07-19T04:29:29.450Z,17.36
2018-07-19T04:30:29.443Z,17.46
2018-07-19T04:31:29.441Z,17.47
2018-07-19T04:32:29.442Z,17.53
2018-07-19T04:33:29.436Z,17.64
2018-07-19T04:34:29.441Z,17.55
2018-07-19T04:35:29.440Z,17.64
2018-07-19T04:36:29.431Z,17.66
2018-07-19T04:37:29.434Z,17.66
2018-07-19T04:38:29.428Z,17.70
2018-07-19T04:39:29.425Z,17.67
2018-07-19T04:40:29.426Z,17.78
2018-07-19T04:41:29.423Z,17.91
2018-07-19T04:42:29.427Z,17.95
2018-07-19T04:43:29.420Z,18.03
2018-07-19T04:44:29.421Z,18.06
2018-07-19T04:45:29.419Z,18.13
2018-07-19T04:46:29.419Z,18.24
2018-07-19T04:47:29.416Z,18.27
2018-07-19T04:48:29.413Z,18.42
2018-07-19T04:49:29.412Z,18.46
2018-07-19T04:50:29.413Z,18.57
2018-07-19T04:51:29.406Z,18.65
2018-07-19T04:52:29.411Z,18.68
2018-07-19T04:53:29.403Z,18.65
2018-07-19T04:54:29.466Z,18.80
2018-07-19T04:55:29.458Z,18.80
2018-07-19T04:56:29.405Z,18.97
2018-07-19T04:57:29.447Z,18.90
2018-07-19T04:58:29.398Z,18.95
2018-07-19T04:59:29.399Z,18.95
2018-07-19T05:00:29.398Z,19.02
2018-07-19T05:01:29.402Z,19.13
2018-07-19T05:02:29.392Z,19.14
2018-07-19T05:03:29.391Z,19.13
2018-07-19T05:04:29.393Z,19.21
2018-07-19T05:05:29.391Z,19.21
2018-07-19T05:06:29.388Z,19.15
2018-07-19T05:07:29.388Z,19.24
2018-07-19T05:08:29.396Z,19.18
2018-07-19T05:09:29.390Z,19.02
2018-07-19T05:10:29.395Z,19.15
2018-07-19T05:11:29.395Z,19.18
2018-07-19T05:12:29.389Z,19.28
2018-07-19T05:13:29.385Z,19.24
2018-07-19T05:14:29.390Z,19.32
2018-07-19T05:15:29.385Z,19.25
2018-07-19T05:16:29.386Z,19.24
2018-07-19T05:17:29.383Z,19.32
2018-07-19T05:18:29.384Z,19.21
2018-07-19T05:19:29.380Z,19.20
2018-07-19T05:20:29.381Z,19.18
2018-07-19T05:21:29.382Z,19.18
2018-07-19T05:22:29.382Z,19.24
2018-07-19T05:23:29.381Z,19.24
2018-07-19T05:24:29.377Z,19.25
2018-07-19T05:25:29.379Z,19.33
2018-07-19T05:26:29.382Z,19.32
2018-07-19T05:27:29.377Z,19.35
2018-07-19T05:28:29.377Z,19.36
2018-07-19T05:29:29.381Z,19.36
2018-07-19T05:30:29.375Z,19.48
2018-07-19T05:31:29.377Z,19.48
2018-07-19T05:32:29.376Z,19.42
2018-07-19T05:33:29.376Z,19.50
2018-07-19T05:34:29.404Z,19.48
2018-07-19T05:35:29.382Z,19.58
2018-07-19T05:36:29.374Z,19.58
2018-07-19T05:37:29.377Z,19.58
2018-07-19T05:38:29.379Z,19.54
2018-07-19T05:39:29.376Z,19.65
2018-07-19T05:40:29.419Z,19.61
2018-07-19T05:41:29.383Z,19.48
2018-07-19T05:42:29.410Z,19.42
2018-07-19T05:43:29.381Z,19.53
2018-07-19T05:44:29.435Z,19.68
2018-07-19T05:45:29.440Z,19.57
2018-07-19T05:46:29.375Z,19.61
2018-07-19T05:47:29.380Z,19.72
2018-07-19T05:48:29.380Z,19.69
2018-07-19T05:49:29.377Z,19.60
2018-07-19T05:50:29.377Z,19.60
2018-07-19T05:51:29.376Z,19.78
2018-07-19T05:52:29.380Z,19.84
2018-07-19T05:53:29.384Z,19.80
2018-07-19T05:54:29.379Z,19.83
2018-07-19T05:55:29.378Z,19.83
2018-07-19T05:56:29.378Z,19.73
2018-07-19T05:57:29.378Z,19.91
2018-07-19T05:58:29.384Z,19.78
2018-07-19T05:59:29.384Z,19.76
2018-07-19T06:00:29.383Z,19.70
2018-07-19T06:01:29.386Z,19.88
2018-07-19T06:02:29.380Z,19.69
2018-07-19T06:03:29.387Z,19.75
2018-07-19T06:04:29.384Z,19.83
2018-07-19T06:05:29.381Z,19.87
2018-07-19T06:06:29.382Z,19.80
2018-07-19T06:07:29.383Z,19.83
2018-07-19T06:08:29.381Z,19.88
2018-07-19T06:09:29.407Z,19.94
2018-07-19T06:10:29.386Z,19.98
2018-07-19T06:11:29.392Z,19.94
2018-07-19T06:12:29.387Z,20.05
2018-07-19T06:13:29.393Z,20.16
2018-07-19T06:14:29.392Z,20.16
2018-07-19T06:15:29.392Z,20.13
2018-07-19T06:16:29.392Z,20.16
2018-07-19T06:17:29.390Z,20.10
2018-07-19T06:18:29.444Z,20.09
2018-07-19T06:19:29.394Z,20.20
2018-07-19T06:20:29.396Z,20.25
2018-07-19T06:21:29.397Z,20.54
2018-07-19T06:22:29.401Z,20.49
2018-07-19T06:23:29.395Z,20.46
2018-07-19T06:24:29.396Z,20.71
2018-07-19T06:25:29.396Z,20.77
2018-07-19T06:26:29.407Z,20.89
2018-07-19T06:27:29.408Z,20.77
2018-07-19T06:28:29.401Z,20.77
2018-07-19T06:29:29.400Z,20.91
2018-07-19T06:30:29.404Z,21.04
2018-07-19T06:31:29.479Z,20.71
2018-07-19T06:32:29.412Z,20.77
2018-07-19T06:33:29.414Z,20.89
2018-07-19T06:34:29.414Z,20.76
2018-07-19T06:35:29.409Z,20.89
2018-07-19T06:36:29.411Z,21.17
2018-07-19T06:37:29.416Z,21.41
2018-07-19T06:38:29.412Z,21.19
2018-07-19T06:39:29.419Z,21.27
2018-07-19T06:40:29.417Z,21.39
2018-07-19T06:41:29.420Z,21.35
2018-07-19T06:42:29.423Z,21.39
2018-07-19T06:43:29.428Z,21.57
2018-07-19T06:44:29.429Z,21.63
2018-07-19T06:45:29.431Z,21.83
2018-07-19T06:46:29.430Z,22.09
2018-07-19T06:47:29.432Z,22.28
2018-07-19T06:48:29.442Z,22.16
2018-07-19T06:49:29.474Z,21.79
2018-07-19T06:50:29.444Z,21.61
2018-07-19T06:51:29.441Z,21.64
2018-07-19T06:52:29.446Z,21.46
2018-07-19T06:53:29.444Z,21.91
2018-07-19T06:54:29.444Z,21.75
2018-07-19T06:55:29.444Z,21.95
2018-07-19T06:56:29.444Z,22.19
2018-07-19T06:57:29.460Z,22.19
2018-07-19T06:58:29.454Z,22.52
2018-07-19T06:59:29.458Z,22.10
2018-07-19T07:00:29.460Z,22.32
2018-07-19T07:01:29.462Z,22.54
2018-07-19T07:02:29.463Z,22.67
2018-07-19T07:03:29.473Z,22.83
2018-07-19T07:04:29.463Z,22.99
2018-07-19T07:05:29.470Z,23.29
2018-07-19T07:06:29.475Z,23.08
2018-07-19T07:07:29.476Z,23.22
2018-07-19T07:08:29.476Z,23.04
2018-07-19T07:09:29.477Z,23.32
2018-07-19T07:10:29.522Z,23.38
2018-07-19T07:11:29.487Z,23.72
2018-07-19T07:12:29.489Z,23.64
2018-07-19T07:13:29.487Z,24.04
2018-07-19T07:14:29.496Z,23.97
2018-07-19T07:15:29.501Z,24.19
2018-07-19T07:16:29.505Z,24.22
2018-07-19T07:17:29.506Z,24.32
2018-07-19T07:18:29.505Z,24.41
2018-07-19T07:19:29.513Z,24.73
2018-07-19T07:20:29.519Z,24.59
2018-07-19T07:21:29.526Z,24.75
2018-07-19T07:22:29.533Z,24.91
2018-07-19T07:23:29.544Z,25.43
2018-07-19T07:24:29.545Z,25.54
2018-07-19T07:25:29.553Z,25.50
2018-07-19T07:26:29.565Z,25.34
2018-07-19T07:27:29.572Z,24.73
2018-07-19T07:28:29.581Z,24.68
2018-07-19T07:29:29.587Z,25.56
2018-07-19T07:30:29.607Z,24.75
2018-07-19T07:31:29.611Z,25.61
2018-07-19T07:32:29.618Z,25.52
2018-07-19T07:33:29.627Z,25.12
2018-07-19T07:34:29.645Z,25.54
2018-07-19T07:35:30.435Z,25.83
2018-07-19T07:36:29.660Z,26.49
2018-07-19T07:37:29.669Z,26.79
2018-07-19T07:38:29.682Z,26.83
2018-07-19T07:39:29.686Z,27.38
2018-07-19T07:40:29.710Z,27.17
2018-07-19T07:41:29.717Z,26.59
2018-07-19T07:42:29.737Z,26.58
2018-07-19T07:43:29.741Z,26.61
2018-07-19T07:44:29.785Z,25.80
2018-07-19T07:45:29.761Z,26.59
2018-07-19T07:46:29.782Z,26.87
2018-07-19T07:47:29.794Z,27.02
2018-07-19T07:48:29.804Z,27.16
2018-07-19T07:49:29.821Z,26.69
2018-07-19T07:50:29.832Z,26.77
2018-07-19T07:51:29.864Z,26.91
2018-07-19T07:52:29.862Z,27.54
2018-07-19T07:53:29.862Z,27.86
2018-07-19T07:54:30.047Z,28.13
2018-07-19T07:55:29.902Z,27.71
2018-07-19T07:56:29.907Z,27.47
2018-07-19T07:57:29.924Z,27.33
2018-07-19T07:58:29.937Z,26.96
2018-07-19T07:59:29.951Z,27.59
2018-07-19T08:00:29.979Z,27.16
2018-07-19T08:01:29.981Z,27.39
2018-07-19T08:02:29.992Z,27.92
2018-07-19T08:03:30.002Z,27.67
2018-07-19T08:04:30.022Z,27.69
2018-07-19T08:05:30.035Z,27.61
2018-07-19T08:06:30.051Z,27.36
2018-07-19T08:07:30.063Z,27.74
2018-07-19T08:08:30.082Z,28.22
2018-07-19T08:09:30.120Z,27.53
2018-07-19T08:10:30.113Z,28.21
2018-07-19T08:11:30.119Z,28.14
2018-07-19T08:12:30.142Z,28.06
2018-07-19T08:13:30.155Z,28.01
2018-07-19T08:14:30.163Z,27.86
2018-07-19T08:15:30.174Z,27.76
2018-07-19T08:16:30.196Z,28.63
2018-07-19T08:17:30.209Z,28.29
2018-07-19T08:18:30.230Z,28.46
2018-07-19T08:19:30.239Z,28.01
2018-07-19T08:20:30.255Z,28.06
2018-07-19T08:21:30.272Z,28.77
2018-07-19T08:22:30.285Z,28.10
2018-07-19T08:23:30.298Z,28.41
2018-07-19T08:24:30.314Z,28.28
2018-07-19T08:25:30.332Z,28.60
2018-07-19T08:26:30.345Z,28.28
2018-07-19T08:27:30.364Z,28.81
2018-07-19T08:28:30.381Z,28.80
2018-07-19T08:29:30.394Z,29.26
2018-07-19T08:30:30.406Z,28.68
2018-07-19T08:31:30.428Z,28.66
2018-07-19T08:32:30.442Z,28.70
2018-07-19T08:33:30.456Z,28.19
2018-07-19T08:34:30.473Z,29.07
2018-07-19T08:35:30.503Z,29.44
2018-07-19T08:36:30.506Z,29.84
2018-07-19T08:37:30.518Z,29.55
2018-07-19T08:38:30.543Z,29.71
2018-07-19T08:39:30.553Z,29.62
2018-07-19T08:40:30.572Z,29.52
2018-07-19T08:41:30.585Z,29.11
2018-07-19T08:42:30.603Z,28.93
2018-07-19T08:43:30.618Z,29.63
2018-07-19T08:44:30.637Z,29.50
2018-07-19T08:45:30.649Z,30.27
2018-07-19T08:46:30.670Z,31.09
2018-07-19T08:47:30.690Z,30.37
2018-07-19T08:48:30.700Z,30.65
2018-07-19T08:49:30.712Z,30.49
2018-07-19T08:50:30.733Z,30.93
2018-07-19T08:51:30.770Z,31.23
2018-07-19T08:52:30.769Z,30.76
2018-07-19T08:53:30.786Z,31.17
2018-07-19T08:54:30.823Z,31.02
2018-07-19T08:55:30.821Z,31.26
2018-07-19T08:56:30.852Z,31.65
2018-07-19T08:57:30.855Z,31.23
2018-07-19T08:58:30.870Z,31.68
2018-07-19T08:59:30.892Z,31.35
2018-07-19T09:00:30.927Z,32.05
2018-07-19T09:01:30.928Z,31.84
2018-07-19T09:02:30.953Z,31.57
2018-07-19T09:03:30.964Z,31.35
2018-07-19T09:04:30.982Z,31.46
2018-07-19T09:05:30.999Z,30.24
2018-07-19T09:06:31.025Z,30.89
2018-07-19T09:07:31.034Z,31.09
2018-07-19T09:08:31.056Z,31.70
2018-07-19T09:09:31.083Z,31.92
2018-07-19T09:10:31.107Z,32.06
2018-07-19T09:11:31.116Z,31.68
2018-07-19T09:12:31.141Z,32.62
2018-07-19T09:13:31.166Z,31.42
2018-07-19T09:14:31.175Z,30.80
2018-07-19T09:15:31.203Z,30.59
2018-07-19T09:16:31.221Z,30.91
2018-07-19T09:17:31.233Z,30.40
2018-07-19T09:18:31.256Z,30.45
2018-07-19T09:19:31.384Z,31.21
2018-07-19T09:20:31.298Z,31.76
2018-07-19T09:21:31.315Z,31.40
2018-07-19T09:22:31.337Z,31.93
2018-07-19T09:23:31.359Z,32.00
2018-07-19T09:24:31.375Z,31.50
2018-07-19T09:25:31.405Z,31.77
2018-07-19T09:26:31.449Z,32.47
2018-07-19T09:27:31.438Z,32.89
2018-07-19T09:28:31.460Z,31.92
2018-07-19T09:29:31.477Z,30.99
2018-07-19T09:30:31.487Z,30.57
2018-07-19T09:31:31.515Z,30.69
2018-07-19T09:32:31.544Z,29.43
2018-07-19T09:33:31.562Z,30.38
2018-07-19T09:34:31.575Z,30.54
2018-07-19T09:35:31.594Z,30.12
2018-07-19T09:36:31.612Z,30.40
2018-07-19T09:37:31.629Z,30.33
2018-07-19T09:38:31.722Z,30.76
2018-07-19T09:39:31.670Z,30.99
2018-07-19T09:40:31.686Z,30.11
2018-07-19T09:41:31.704Z,30.46
2018-07-19T09:42:31.728Z,29.63
2018-07-19T09:43:31.770Z,30.24
2018-07-19T09:44:31.761Z,30.69
2018-07-19T09:45:31.781Z,29.57
2018-07-19T09:46:31.799Z,29.75
2018-07-19T09:47:31.816Z,29.99
2018-07-19T09:48:31.834Z,30.15
2018-07-19T09:49:31.854Z,30.49
2018-07-19T09:50:31.875Z,30.56
2018-07-19T09:51:31.887Z,31.35
2018-07-19T09:52:31.905Z,31.04
2018-07-19T09:53:31.921Z,31.13
2018-07-19T09:54:31.957Z,31.53
2018-07-19T09:55:31.957Z,31.42
2018-07-19T09:56:31.973Z,31.77
2018-07-19T09:57:31.994Z,32.06
2018-07-19T09:58:32.011Z,32.27
2018-07-19T09:59:32.071Z,31.88
2018-07-19T10:00:32.052Z,32.42
2018-07-19T10:01:32.102Z,32.61
2018-07-19T10:02:32.094Z,32.30
2018-07-19T10:03:32.100Z,31.88
2018-07-19T10:04:32.117Z,31.77
2018-07-19T10:05:32.139Z,32.52
2018-07-19T10:06:32.157Z,32.27
2018-07-19T10:07:32.181Z,31.96
2018-07-19T10:08:32.190Z,31.33
2018-07-19T10:09:32.215Z,31.11
2018-07-19T10:10:32.233Z,31.18
2018-07-19T10:11:32.255Z,31.12
2018-07-19T10:12:32.270Z,31.54
2018-07-19T10:13:32.323Z,31.53
2018-07-19T10:14:32.308Z,31.84
2018-07-19T10:15:32.334Z,32.30
2018-07-19T10:16:32.344Z,32.25
2018-07-19T10:17:32.363Z,32.57
2018-07-19T10:18:32.373Z,31.93
2018-07-19T10:19:32.403Z,31.55
2018-07-19T10:20:32.418Z,32.10
2018-07-19T10:21:32.426Z,32.07
2018-07-19T10:22:32.446Z,31.99
2018-07-19T10:23:32.469Z,31.23
2018-07-19T10:24:32.486Z,31.17
2018-07-19T10:25:32.506Z,31.95
2018-07-19T10:26:32.568Z,32.57
2018-07-19T10:27:32.538Z,33.42
2018-07-19T10:28:32.579Z,34.07
2018-07-19T10:29:32.587Z,33.63
2018-07-19T10:30:32.637Z,33.49
2018-07-19T10:31:32.617Z,33.15
2018-07-19T10:32:32.699Z,31.68
2018-07-19T10:33:32.646Z,31.80
2018-07-19T10:34:32.672Z,31.43
2018-07-19T10:35:32.694Z,31.70
2018-07-19T10:36:32.704Z,31.40
2018-07-19T10:37:32.765Z,31.48
2018-07-19T10:38:32.748Z,32.89
2018-07-19T10:39:32.766Z,32.17
2018-07-19T10:40:32.818Z,31.38
2018-07-19T10:41:32.800Z,31.36
2018-07-19T10:42:32.820Z,30.99
2018-07-19T10:43:32.839Z,31.05
2018-07-19T10:44:32.852Z,30.99
2018-07-19T10:45:32.871Z,32.17
2018-07-19T10:46:32.894Z,32.51
2018-07-19T10:47:32.911Z,32.84
2018-07-19T10:48:32.928Z,33.52
2018-07-19T10:49:32.965Z,33.48
2018-07-19T10:50:32.963Z,33.61
2018-07-19T10:51:32.988Z,32.59
2018-07-19T10:52:33.001Z,32.59
2018-07-19T10:53:33.018Z,33.82
2018-07-19T10:54:33.039Z,34.41
2018-07-19T10:55:33.059Z,33.13
2018-07-19T10:56:33.075Z,32.81
2018-07-19T10:57:33.163Z,32.79
2018-07-19T10:58:33.113Z,32.30
2018-07-19T10:59:33.132Z,32.79
2018-07-19T11:00:33.148Z,33.87
2018-07-19T11:01:33.168Z,34.26
2018-07-19T11:02:33.185Z,34.61
2018-07-19T11:03:33.217Z,34.83
2018-07-19T11:04:33.226Z,33.97
2018-07-19T11:05:33.235Z,33.31
2018-07-19T11:06:33.271Z,33.06
2018-07-19T11:07:33.279Z,32.73
2018-07-19T11:08:33.306Z,33.08
2018-07-19T11:09:33.397Z,33.07
2018-07-19T11:10:33.338Z,32.48
2018-07-19T11:11:33.356Z,32.84
2018-07-19T11:12:33.381Z,32.64
2018-07-19T11:13:33.390Z,32.71
2018-07-19T11:14:33.416Z,32.62
2018-07-19T11:15:33.436Z,32.10
2018-07-19T11:16:33.459Z,31.20
2018-07-19T11:17:33.472Z,30.96
2018-07-19T11:18:33.487Z,29.96
2018-07-19T11:19:33.508Z,30.34
2018-07-19T11:20:33.527Z,31.55
2018-07-19T11:21:33.544Z,31.88
2018-07-19T11:22:33.566Z,31.40
2018-07-19T11:23:33.581Z,30.64
2018-07-19T11:24:33.603Z,31.65
2018-07-19T11:25:33.661Z,32.84
2018-07-19T11:26:33.631Z,31.61
2018-07-19T11:27:33.650Z,31.72
2018-07-19T11:28:33.664Z,31.60
2018-07-19T11:29:33.676Z,31.06
2018-07-19T11:30:33.701Z,30.74
2018-07-19T11:31:33.711Z,31.53
2018-07-19T11:32:33.729Z,31.08
2018-07-19T11:33:33.754Z,31.57
2018-07-19T11:34:33.762Z,31.61
2018-07-19T11:35:33.784Z,31.88
2018-07-19T11:36:33.799Z,32.20
2018-07-19T11:37:33.825Z,33.01
2018-07-19T11:38:33.845Z,33.15
2018-07-19T11:39:33.853Z,32.85
2018-07-19T11:40:33.876Z,32.44
2018-07-19T11:41:33.928Z,32.91
2018-07-19T11:42:33.903Z,33.14
2018-07-19T11:43:33.920Z,32.85
2018-07-19T11:44:33.945Z,32.14
2018-07-19T11:45:34.003Z,32.70
2018-07-19T11:46:33.970Z,33.34
2018-07-19T11:47:33.991Z,33.37
2018-07-19T11:48:34.009Z,34.02
2018-07-19T11:49:34.033Z,32.95
2018-07-19T11:50:34.043Z,33.41
2018-07-19T11:51:34.061Z,33.41
2018-07-19T11:52:34.079Z,33.11
2018-07-19T11:53:34.101Z,33.94
2018-07-19T11:54:34.112Z,33.51
2018-07-19T11:55:34.136Z,33.79
2018-07-19T11:56:34.149Z,34.31
2018-07-19T11:57:34.168Z,34.77
2018-07-19T11:58:34.200Z,35.01
2018-07-19T11:59:34.204Z,34.69
2018-07-19T12:00:34.224Z,34.07
2018-07-19T12:01:34.242Z,33.31
2018-07-19T12:02:34.299Z,32.80
2018-07-19T12:03:34.285Z,31.99
2018-07-19T12:04:34.302Z,32.15
2018-07-19T12:05:34.317Z,32.39
2018-07-19T12:06:34.340Z,32.22
2018-07-19T12:07:34.365Z,32.51
2018-07-19T12:08:34.372Z,32.66
2018-07-19T12:09:34.391Z,33.22
2018-07-19T12:10:34.413Z,34.02
2018-07-19T12:11:34.426Z,34.31
2018-07-19T12:12:34.445Z,34.84
2018-07-19T12:13:34.463Z,34.70
2018-07-19T12:14:34.482Z,35.06
2018-07-19T12:15:34.499Z,34.64
2018-07-19T12:16:34.526Z,33.80
2018-07-19T12:17:34.534Z,33.27
2018-07-19T12:18:34.555Z,32.79
2018-07-19T12:19:34.575Z,32.13
2018-07-19T12:20:34.590Z,31.48
2018-07-19T12:21:34.611Z,31.45
2018-07-19T12:22:34.632Z,31.39
2018-07-19T12:23:34.651Z,31.42
2018-07-19T12:24:34.664Z,31.45
2018-07-19T12:25:34.714Z,31.88
2018-07-19T12:26:34.704Z,31.62
2018-07-19T12:27:34.720Z,31.62
2018-07-19T12:28:34.737Z,31.62
2018-07-19T12:29:34.759Z,31.75
2018-07-19T12:30:34.771Z,31.54
2018-07-19T12:31:34.790Z,31.39
2018-07-19T12:32:34.807Z,31.09
2018-07-19T12:33:34.823Z,31.42
2018-07-19T12:34:34.835Z,31.73
2018-07-19T12:35:34.878Z,31.17
2018-07-19T12:36:34.872Z,30.61
2018-07-19T12:37:34.893Z,30.68
2018-07-19T12:38:34.906Z,29.97
2018-07-19T12:39:34.930Z,29.77
2018-07-19T12:40:34.941Z,29.66
2018-07-19T12:41:34.956Z,29.57
2018-07-19T12:42:34.978Z,29.66
2018-07-19T12:43:34.983Z,29.79
2018-07-19T12:44:35.003Z,29.89
2018-07-19T12:45:35.017Z,30.09
2018-07-19T12:46:35.024Z,30.45
2018-07-19T12:47:35.047Z,30.57
2018-07-19T12:48:35.058Z,30.54
2018-07-19T12:49:35.074Z,30.29
2018-07-19T12:50:35.085Z,30.24
2018-07-19T12:51:35.099Z,30.08
2018-07-19T12:52:35.107Z,30.16
2018-07-19T12:53:35.120Z,29.77
2018-07-19T12:54:35.135Z,29.22
2018-07-19T12:55:35.140Z,29.10
2018-07-19T12:56:35.150Z,29.26
2018-07-19T12:57:35.175Z,29.20
2018-07-19T12:58:35.173Z,29.23
2018-07-19T12:59:35.186Z,29.29
2018-07-19T13:00:35.191Z,29.62
2018-07-19T13:01:35.199Z,29.65
2018-07-19T13:02:35.208Z,29.60
2018-07-19T13:03:35.215Z,29.47
2018-07-19T13:04:35.231Z,29.25
2018-07-19T13:05:35.232Z,29.20
2018-07-19T13:06:35.239Z,28.95
2018-07-19T13:07:35.249Z,29.03
2018-07-19T13:08:35.255Z,29.11
2018-07-19T13:09:35.267Z,29.00
2018-07-19T13:10:35.271Z,28.95
2018-07-19T13:11:35.277Z,28.88
2018-07-19T13:12:35.285Z,28.81
2018-07-19T13:13:35.295Z,29.18
2018-07-19T13:14:35.300Z,29.16
2018-07-19T13:15:35.306Z,28.95
2018-07-19T13:16:35.318Z,28.82
2018-07-19T13:17:35.316Z,28.62
2018-07-19T13:18:35.328Z,28.59
2018-07-19T13:19:35.336Z,28.70
2018-07-19T13:20:35.341Z,28.56
2018-07-19T13:21:35.357Z,28.60
2018-07-19T13:22:35.359Z,28.77
2018-07-19T13:23:35.365Z,28.77
2018-07-19T13:24:35.368Z,28.63
2018-07-19T13:25:35.374Z,28.73
2018-07-19T13:26:35.385Z,28.58
2018-07-19T13:27:35.388Z,28.58
2018-07-19T13:28:35.393Z,28.69
2018-07-19T13:29:35.401Z,28.63
2018-07-19T13:30:35.407Z,28.70
2018-07-19T13:31:35.417Z,28.65
2018-07-19T13:32:35.420Z,28.97
2018-07-19T13:33:35.425Z,29.07
2018-07-19T13:34:35.442Z,29.03
2018-07-19T13:35:35.438Z,29.10
2018-07-19T13:36:35.449Z,28.95
2018-07-19T13:37:35.450Z,28.84
2018-07-19T13:38:35.455Z,28.82
2018-07-19T13:39:35.466Z,28.87
2018-07-19T13:40:35.469Z,28.80
2018-07-19T13:41:35.473Z,28.84
2018-07-19T13:42:35.537Z,28.75
2018-07-19T13:43:35.485Z,28.56
2018-07-19T13:44:35.492Z,28.35
2018-07-19T13:45:35.503Z,28.19
2018-07-19T13:46:35.504Z,28.33
2018-07-19T13:47:35.512Z,28.26
2018-07-19T13:48:35.516Z,28.44
2018-07-19T13:49:35.533Z,28.35
2018-07-19T13:50:35.541Z,28.53
2018-07-19T13:51:35.532Z,28.66
2018-07-19T13:52:35.538Z,28.63
2018-07-19T13:53:35.542Z,28.81
2018-07-19T13:54:35.552Z,28.93
2018-07-19T13:55:35.555Z,29.06
2018-07-19T13:56:35.558Z,28.93
2018-07-19T13:57:35.564Z,29.04
2018-07-19T13:58:35.568Z,28.81
2018-07-19T13:59:35.580Z,28.58
2018-07-19T14:00:35.582Z,28.72
2018-07-19T14:01:35.588Z,28.72
2018-07-19T14:02:35.592Z,28.62
2018-07-19T14:03:35.597Z,28.84
2018-07-19T14:04:35.600Z,28.90
2018-07-19T14:05:35.608Z,28.73
2018-07-19T14:06:35.625Z,28.62
2018-07-19T14:07:35.626Z,28.66
2018-07-19T14:08:35.624Z,28.68
2018-07-19T14:09:35.630Z,28.72